createdAt,value
2022-11-15T00:01:18.977Z,101301.95
2022-11-15T00:04:07.401Z,101292.66
2022-11-15T00:06:54.431Z,101292.16
2022-11-15T00:09:45.932Z,101291.05
2022-11-15T00:12:34.168Z,101287.33
2022-11-15T00:15:22.088Z,101284.27
2022-11-15T00:18:16.111Z,101278.69
2022-11-15T00:21:12.388Z,101273.39
2022-11-15T00:24:00.103Z,101264.38
2022-11-15T00:26:48.119Z,101258.13
2022-11-15T00:29:38.163Z,101258.05
2022-11-15T00:32:27.833Z,101253.62
2022-11-15T00:35:16.026Z,101249.19
2022-11-15T00:38:03.744Z,101240.10
2022-11-15T00:40:51.359Z,101242.32
2022-11-15T00:43:41.369Z,101240.46
2022-11-15T00:46:29.236Z,101240.60
2022-11-15T00:49:16.873Z,101227.52
2022-11-15T00:52:05.537Z,101221.09
2022-11-15T00:54:53.517Z,101220.23
2022-11-15T00:57:42.636Z,101219.16
2022-11-15T01:00:30.531Z,101225.95
2022-11-15T01:03:18.134Z,101225.09
2022-11-15T01:06:06.703Z,101221.88
2022-11-15T01:08:54.211Z,101223.95
2022-11-15T01:11:42.711Z,101217.66
2022-11-15T01:14:30.524Z,101224.59
2022-11-15T01:17:17.948Z,101213.23
2022-11-15T01:20:08.202Z,101208.80
2022-11-15T01:22:57.653Z,101198.94
2022-11-15T01:25:45.581Z,101197.94
2022-11-15T01:28:35.166Z,101194.58
2022-11-15T01:31:23.040Z,101196.79
2022-11-15T01:34:10.898Z,101190.21
2022-11-15T01:36:59.991Z,101189.07
2022-11-15T01:39:50.350Z,101188.06
2022-11-15T01:42:38.323Z,101181.06
2022-11-15T01:45:26.958Z,101177.84
2022-11-15T01:48:14.466Z,101175.78
2022-11-15T01:51:04.300Z,101169.48
2022-11-15T01:53:56.503Z,101169.98
2022-11-15T01:56:53.688Z,101163.41
2022-11-15T01:59:44.358Z,101165.98
2022-11-15T02:02:31.717Z,101160.55
2022-11-15T02:05:20.067Z,101148.69
2022-11-15T02:08:07.689Z,101147.89
2022-11-15T02:10:55.222Z,101148.69
2022-11-15T02:13:43.690Z,101148.33
2022-11-15T02:16:57.147Z,101145.19
2022-11-15T02:19:59.717Z,101141.55
2022-11-15T02:23:43.934Z,101143.55
2022-11-15T02:26:53.403Z,101140.69
2022-11-15T02:30:25.578Z,101132.68
2022-11-15T02:33:37.052Z,101129.11
2022-11-15T02:37:15.204Z,101129.61
2022-11-15T02:40:23.000Z,101125.33
2022-11-15T02:43:31.615Z,101131.47
2022-11-15T02:47:00.728Z,101134.25
2022-11-15T02:49:54.581Z,101123.75
2022-11-15T02:52:48.901Z,101125.75
2022-11-15T02:55:42.546Z,101121.18
2022-11-15T02:58:50.966Z,101112.82
2022-11-15T03:02:11.173Z,101113.68
2022-11-15T03:05:36.497Z,101114.32
2022-11-15T03:08:58.494Z,101111.32
2022-11-15T03:11:50.668Z,101114.18
2022-11-15T03:14:51.018Z,101107.67
2022-11-15T03:17:50.192Z,101099.03
2022-11-15T03:20:37.617Z,101093.89
2022-11-15T03:23:25.669Z,101088.39
2022-11-15T03:26:14.314Z,101082.53
2022-11-15T03:29:18.422Z,101089.32
2022-11-15T03:32:19.472Z,101082.53
2022-11-15T03:35:10.059Z,101072.82
2022-11-15T03:38:22.268Z,101074.03
2022-11-15T03:41:20.427Z,101067.75
2022-11-15T03:44:19.457Z,101062.67
2022-11-15T03:47:22.923Z,101068.25
2022-11-15T03:50:17.186Z,101052.11
2022-11-15T03:53:04.861Z,101050.53
2022-11-15T03:55:52.322Z,101052.97
2022-11-15T03:58:40.358Z,101058.03
2022-11-15T04:01:28.440Z,101046.47
2022-11-15T04:04:16.530Z,101049.83
2022-11-15T04:07:03.750Z,101039.61
2022-11-15T04:10:03.291Z,101044.54
2022-11-15T04:12:50.477Z,101032.83
2022-11-15T04:15:37.718Z,101031.47
2022-11-15T04:18:25.367Z,101027.39
2022-11-15T04:21:33.368Z,101031.83
2022-11-15T04:24:21.893Z,101024.04
2022-11-15T04:27:09.350Z,101021.18
2022-11-15T04:29:57.915Z,101024.75
2022-11-15T04:32:46.043Z,101018.97
2022-11-15T04:35:34.269Z,101019.61
2022-11-15T04:38:21.286Z,101015.19
2022-11-15T04:41:08.512Z,101013.68
2022-11-15T04:43:56.221Z,101014.19
2022-11-15T04:46:42.886Z,101016.90
2022-11-15T04:49:31.113Z,101017.75
2022-11-15T04:52:19.261Z,101005.89
2022-11-15T04:55:08.494Z,101003.04
2022-11-15T04:58:03.413Z,100998.47
2022-11-15T05:00:51.217Z,101003.75
2022-11-15T05:03:57.003Z,100997.97
2022-11-15T05:06:44.220Z,100996.96
2022-11-15T05:09:31.409Z,100991.83
2022-11-15T05:12:18.869Z,100991.61
2022-11-15T05:15:08.181Z,100988.55
2022-11-15T05:18:01.229Z,100986.19
2022-11-15T05:20:47.868Z,100986.05
2022-11-15T05:23:35.386Z,100988.11
2022-11-15T05:26:22.520Z,100984.10
2022-11-15T05:29:12.300Z,100976.88
2022-11-15T05:32:00.689Z,100982.81
2022-11-15T05:34:48.103Z,100986.53
2022-11-15T05:37:36.833Z,100982.39
2022-11-15T05:40:25.287Z,100973.75
2022-11-15T05:43:13.115Z,100973.25
2022-11-15T05:46:00.276Z,100976.81
2022-11-15T05:48:50.426Z,100975.61
2022-11-15T05:51:38.000Z,100972.39
2022-11-15T05:54:25.941Z,100972.53
2022-11-15T05:57:13.915Z,100970.18
2022-11-15T06:00:01.472Z,100958.81
2022-11-15T06:02:50.130Z,100961.68
2022-11-15T06:05:38.442Z,100960.67
2022-11-15T06:08:26.040Z,100951.68
2022-11-15T06:11:14.216Z,100950.32
2022-11-15T06:14:02.679Z,100949.32
2022-11-15T06:16:50.480Z,100948.81
2022-11-15T06:19:37.870Z,100945.60
2022-11-15T06:22:27.366Z,100948.87
2022-11-15T06:25:15.128Z,100936.52
2022-11-15T06:28:04.995Z,100942.80
2022-11-15T06:30:53.558Z,100938.73
2022-11-15T06:33:41.973Z,100936.38
2022-11-15T06:36:29.556Z,100941.86
2022-11-15T06:39:17.669Z,100947.29
2022-11-15T06:42:06.461Z,100936.08
2022-11-15T06:44:54.368Z,100949.14
2022-11-15T06:47:48.564Z,100937.52
2022-11-15T06:50:37.216Z,100941.38
2022-11-15T06:53:25.115Z,100929.88
2022-11-15T06:56:13.400Z,100930.44
2022-11-15T06:59:01.820Z,100938.23
2022-11-15T07:01:50.875Z,100933.59
2022-11-15T07:04:39.898Z,100933.74
2022-11-15T07:07:27.277Z,100930.52
2022-11-15T07:10:16.567Z,100931.23
2022-11-15T07:13:05.325Z,100935.52
2022-11-15T07:15:53.163Z,100926.22
2022-11-15T07:18:41.103Z,100924.72
2022-11-15T07:21:28.989Z,100919.14
2022-11-15T07:24:17.696Z,100923.92
2022-11-15T07:27:06.436Z,100918.19
2022-11-15T07:29:55.116Z,100912.41
2022-11-15T07:32:43.775Z,100908.04
2022-11-15T07:35:33.110Z,100906.53
2022-11-15T07:38:20.667Z,100913.17
2022-11-15T07:41:08.818Z,100909.09
2022-11-15T07:43:56.578Z,100904.02
2022-11-15T07:46:45.940Z,100903.38
2022-11-15T07:49:34.868Z,100893.22
2022-11-15T07:52:22.922Z,100896.38
2022-11-15T07:55:10.647Z,100885.66
2022-11-15T07:58:09.924Z,100878.52
2022-11-15T08:00:57.816Z,100883.95
2022-11-15T08:03:45.892Z,100881.09
2022-11-15T08:06:34.656Z,100879.03
2022-11-15T08:09:23.994Z,100886.47
2022-11-15T08:12:11.796Z,100876.55
2022-11-15T08:14:59.226Z,100874.79
2022-11-15T08:17:47.874Z,100870.52
2022-11-15T08:20:36.050Z,100866.73
2022-11-15T08:23:24.335Z,100865.08
2022-11-15T08:26:12.828Z,100874.64
2022-11-15T08:29:01.016Z,100870.66
2022-11-15T08:31:49.846Z,100870.10
2022-11-15T08:34:39.259Z,100870.61
2022-11-15T08:37:26.182Z,100865.03
2022-11-15T08:40:14.977Z,100861.81
2022-11-15T08:43:03.869Z,100861.95
2022-11-15T08:45:51.262Z,100861.11
2022-11-15T08:48:38.548Z,100862.16
2022-11-15T08:51:25.703Z,100855.38
2022-11-15T08:54:13.454Z,100848.74
2022-11-15T08:57:03.822Z,100849.39
2022-11-15T08:59:50.953Z,100839.89
2022-11-15T09:02:40.113Z,100843.26
2022-11-15T09:05:27.309Z,100842.11
2022-11-15T09:08:40.782Z,100834.47
2022-11-15T09:11:09.978Z,100828.03
2022-11-15T09:13:58.361Z,100827.38
2022-11-15T09:16:46.652Z,100820.39
2022-11-15T09:19:34.954Z,100819.19
2022-11-15T09:22:23.024Z,100813.75
2022-11-15T09:25:11.293Z,100794.41
2022-11-15T09:27:59.173Z,100784.86
2022-11-15T09:30:46.714Z,100782.39
2022-11-15T09:33:34.814Z,100776.81
2022-11-15T09:36:24.199Z,100765.34
2022-11-15T09:39:11.753Z,100761.63
2022-11-15T09:42:26.651Z,100754.84
2022-11-15T09:45:29.102Z,100755.45
2022-11-15T09:48:40.265Z,100748.50
2022-11-15T09:51:42.529Z,100738.00
2022-11-15T09:57:16.502Z,100729.23
2022-11-15T10:00:44.726Z,100727.53
2022-11-15T10:03:13.882Z,100723.30
2022-11-15T10:05:50.643Z,100709.58
2022-11-15T10:08:36.011Z,100694.33
2022-11-15T10:11:36.656Z,100694.02
2022-11-15T10:13:54.882Z,100692.16
2022-11-15T10:16:48.669Z,100688.63
2022-11-15T10:19:35.909Z,100685.95
2022-11-15T10:22:18.298Z,100684.09
2022-11-15T10:24:47.402Z,100673.27
2022-11-15T10:27:19.816Z,100674.66
2022-11-15T10:29:50.922Z,100665.50
2022-11-15T10:32:21.878Z,100657.42
2022-11-15T10:34:52.639Z,100651.13
2022-11-15T10:37:32.710Z,100651.48
2022-11-15T10:40:15.708Z,100647.25
2022-11-15T10:42:46.997Z,100636.22
2022-11-15T10:45:27.887Z,100633.00
2022-11-15T10:48:17.307Z,100630.28
2022-11-15T10:50:48.919Z,100621.98
2022-11-15T10:53:41.547Z,100620.30
2022-11-15T10:56:13.919Z,100617.23
2022-11-15T10:58:44.872Z,100607.41
2022-11-15T11:01:23.718Z,100600.62
2022-11-15T11:04:12.303Z,100594.84
2022-11-15T11:07:02.034Z,100592.81
2022-11-15T11:09:42.272Z,100590.26
2022-11-15T11:12:15.730Z,100571.42
2022-11-15T11:14:45.647Z,100563.80
2022-11-15T11:17:46.938Z,100558.05
2022-11-15T11:20:35.012Z,100550.06
2022-11-15T11:23:25.687Z,100545.30
2022-11-15T11:26:34.129Z,100539.35
2022-11-15T11:29:24.017Z,100534.45
2022-11-15T11:32:05.305Z,100520.03
2022-11-15T11:35:01.429Z,100519.52
2022-11-15T11:37:45.817Z,100513.09
2022-11-15T11:40:53.314Z,100517.53
2022-11-15T11:44:21.398Z,100514.84
2022-11-15T11:46:57.780Z,100507.87
2022-11-15T11:49:41.244Z,100501.43
2022-11-15T11:52:42.604Z,100500.25
2022-11-15T11:55:24.335Z,100498.56
2022-11-15T11:58:22.025Z,100491.77
2022-11-15T12:01:13.009Z,100490.91
2022-11-15T12:03:52.380Z,100492.45
2022-11-15T12:06:41.529Z,100481.25
2022-11-15T12:09:45.903Z,100476.84
2022-11-15T12:12:35.394Z,100472.08
2022-11-15T12:15:15.980Z,100462.56
2022-11-15T12:17:46.815Z,100469.70
2022-11-15T12:20:20.174Z,100460.36
2022-11-15T12:23:00.364Z,100452.39
2022-11-15T12:25:55.579Z,100447.80
2022-11-15T12:28:36.230Z,100443.38
2022-11-15T12:31:35.798Z,100440.87
2022-11-15T12:34:30.536Z,100435.48
2022-11-15T12:36:59.858Z,100428.52
2022-11-15T12:40:25.920Z,100424.95
2022-11-15T12:43:02.480Z,100416.45
2022-11-15T12:45:40.241Z,100417.14
2022-11-15T12:48:41.045Z,100412.03
2022-11-15T12:51:12.413Z,100417.98
2022-11-15T12:53:41.393Z,100412.55
2022-11-15T12:56:18.932Z,100405.92
2022-11-15T12:58:57.984Z,100399.64
2022-11-15T13:01:36.194Z,100392.67
2022-11-15T13:04:26.933Z,100399.30
2022-11-15T13:07:01.952Z,100392.33
2022-11-15T13:09:38.980Z,100390.29
2022-11-15T13:12:30.247Z,100387.40
2022-11-15T13:15:16.494Z,100382.63
2022-11-15T13:17:54.736Z,100379.57
2022-11-15T13:20:33.003Z,100377.02
2022-11-15T13:23:13.054Z,100368.52
2022-11-15T13:26:05.524Z,100361.72
2022-11-15T13:28:47.403Z,100362.73
2022-11-15T13:31:24.764Z,100365.63
2022-11-15T13:33:54.316Z,100365.45
2022-11-15T13:36:34.912Z,100360.86
2022-11-15T13:39:09.559Z,100357.62
2022-11-15T13:41:50.801Z,100350.83
2022-11-15T13:44:25.272Z,100347.08
2022-11-15T13:47:10.015Z,100336.53
2022-11-15T13:49:39.609Z,100342.66
2022-11-15T13:52:14.916Z,100333.47
2022-11-15T13:55:17.566Z,100330.75
2022-11-15T13:58:04.330Z,100327.68
2022-11-15T14:00:44.529Z,100321.40
2022-11-15T14:03:24.219Z,100327.02
2022-11-15T14:06:17.821Z,100325.32
2022-11-15T14:09:16.391Z,100311.37
2022-11-15T14:11:57.539Z,100314.61
2022-11-15T14:14:28.709Z,100305.08
2022-11-15T14:17:02.483Z,100302.87
2022-11-15T14:19:35.939Z,100293.68
2022-11-15T14:22:25.699Z,100288.91
2022-11-15T14:25:18.727Z,100283.47
2022-11-15T14:28:36.251Z,100289.09
2022-11-15T14:31:31.274Z,100288.23
2022-11-15T14:34:16.830Z,100277.34
2022-11-15T14:36:48.974Z,100273.07
2022-11-15T14:39:18.776Z,100266.78
2022-11-15T14:41:47.625Z,100266.78
2022-11-15T14:44:19.318Z,100266.45
2022-11-15T14:46:49.271Z,100256.06
2022-11-15T14:49:19.392Z,100258.44
2022-11-15T14:51:49.204Z,100255.72
2022-11-15T14:54:19.076Z,100257.25
2022-11-15T14:56:48.700Z,100258.95
2022-11-15T14:59:18.781Z,100262.88
2022-11-15T15:01:54.553Z,100253.83
2022-11-15T15:04:25.600Z,100257.56
2022-11-15T15:06:55.199Z,100251.43
2022-11-15T15:09:24.829Z,100246.85
2022-11-15T15:11:55.531Z,100239.71
2022-11-15T15:14:29.230Z,100239.20
2022-11-15T15:17:04.073Z,100230.52
2022-11-15T15:19:34.141Z,100234.78
2022-11-15T15:22:05.600Z,100236.30
2022-11-15T15:24:38.408Z,100223.53
2022-11-15T15:27:10.018Z,100222.51
2022-11-15T15:29:40.298Z,100220.36
2022-11-15T15:32:14.768Z,100215.56
2022-11-15T15:34:44.998Z,100209.42
2022-11-15T15:37:25.948Z,100214.89
2022-11-15T15:39:57.248Z,100210.13
2022-11-15T15:42:26.683Z,100205.73
2022-11-15T15:44:57.535Z,100202.01
2022-11-15T15:47:28.156Z,100198.10
2022-11-15T15:49:59.094Z,100198.95
2022-11-15T15:52:29.796Z,100192.99
2022-11-15T15:54:59.133Z,100189.94
2022-11-15T15:57:29.319Z,100186.20
2022-11-15T15:59:59.079Z,100185.70
2022-11-15T16:02:28.909Z,100176.34
2022-11-15T16:04:58.921Z,100175.30
2022-11-15T16:07:30.208Z,100169.30
2022-11-15T16:10:01.908Z,100172.19
2022-11-15T16:12:35.337Z,100166.91
2022-11-15T16:15:06.505Z,100170.16
2022-11-15T16:17:40.553Z,100168.80
2022-11-15T16:20:34.301Z,100162.50
2022-11-15T16:23:08.981Z,100164.20
2022-11-15T16:25:50.062Z,100156.69
2022-11-15T16:28:36.944Z,100157.54
2022-11-15T16:31:18.908Z,100156.52
2022-11-15T16:33:49.754Z,100156.00
2022-11-15T16:36:30.242Z,100150.55
2022-11-15T16:38:59.501Z,100143.05
2022-11-15T16:41:29.349Z,100139.98
2022-11-15T16:43:58.705Z,100137.27
2022-11-15T16:46:29.788Z,100134.20
2022-11-15T16:48:59.668Z,100139.84
2022-11-15T16:51:29.316Z,100128.43
2022-11-15T16:53:58.377Z,100125.52
2022-11-15T16:56:29.394Z,100121.77
2022-11-15T16:58:59.384Z,100120.74
2022-11-15T17:01:32.190Z,100120.23
2022-11-15T17:04:16.380Z,100120.56
2022-11-15T17:06:47.279Z,100122.63
2022-11-15T17:09:25.969Z,100114.45
2022-11-15T17:11:55.407Z,100115.48
2022-11-15T17:14:24.994Z,100109.19
2022-11-15T17:16:55.254Z,100110.70
2022-11-15T17:19:24.984Z,100105.95
2022-11-15T17:21:56.338Z,100109.19
2022-11-15T17:24:27.436Z,100108.67
2022-11-15T17:26:56.923Z,100104.22
2022-11-15T17:29:26.879Z,100096.90
2022-11-15T17:31:57.745Z,100095.35
2022-11-15T17:34:28.280Z,100091.27
2022-11-15T17:36:58.873Z,100085.48
2022-11-15T17:39:28.545Z,100083.28
2022-11-15T17:41:59.077Z,100081.92
2022-11-15T17:44:29.592Z,100076.47
2022-11-15T17:47:00.319Z,100076.62
2022-11-15T17:49:29.907Z,100083.06
2022-11-15T17:51:59.010Z,100071.84
2022-11-15T17:54:28.846Z,100071.84
2022-11-15T17:56:58.842Z,100060.28
2022-11-15T17:59:28.440Z,100056.19
2022-11-15T18:01:57.434Z,100051.08
2022-11-15T18:04:28.905Z,100047.33
2022-11-15T18:06:59.497Z,100038.97
2022-11-15T18:09:28.713Z,100036.42
2022-11-15T18:11:59.872Z,100034.03
2022-11-15T18:14:31.550Z,100026.38
2022-11-15T18:17:01.341Z,100015.16
2022-11-15T18:19:31.301Z,100020.93
2022-11-15T18:22:01.416Z,100016.52
2022-11-15T18:24:35.645Z,100019.42
2022-11-15T18:27:07.236Z,100014.82
2022-11-15T18:29:38.088Z,100015.67
2022-11-15T18:32:10.657Z,100010.22
2022-11-15T18:34:40.677Z,99999.33
2022-11-15T18:37:10.287Z,99999.66
2022-11-15T18:39:39.356Z,100006.94
2022-11-15T18:42:09.982Z,100005.77
2022-11-15T18:44:56.304Z,100004.08
2022-11-15T18:47:25.239Z,99993.17
2022-11-15T18:49:54.221Z,99989.75
2022-11-15T18:52:23.484Z,99989.23
2022-11-15T18:54:53.942Z,99992.66
2022-11-15T18:57:23.726Z,99995.91
2022-11-15T18:59:53.062Z,99990.30
2022-11-15T19:02:22.184Z,99983.83
2022-11-15T19:04:51.018Z,99982.61
2022-11-15T19:07:20.447Z,99985.66
2022-11-15T19:09:51.431Z,99980.22
2022-11-15T19:12:20.666Z,99977.49
2022-11-15T19:14:50.507Z,99978.53
2022-11-15T19:17:20.105Z,99977.16
2022-11-15T19:19:49.586Z,99976.13
2022-11-15T19:22:19.518Z,99971.67
2022-11-15T19:24:48.744Z,99972.33
2022-11-15T19:27:18.120Z,99968.63
2022-11-15T19:29:47.245Z,99963.17
2022-11-15T19:32:17.645Z,99958.42
2022-11-15T19:34:47.919Z,99960.12
2022-11-15T19:37:17.151Z,99950.91
2022-11-15T19:39:48.115Z,99948.19
2022-11-15T19:42:16.925Z,99950.58
2022-11-15T19:44:46.039Z,99946.17
2022-11-15T19:47:14.881Z,99947.53
2022-11-15T19:49:44.084Z,99944.29
2022-11-15T19:52:13.317Z,99943.77
2022-11-15T19:54:42.417Z,99941.23
2022-11-15T19:57:29.491Z,99942.08
2022-11-15T20:00:00.842Z,99936.12
2022-11-15T20:02:29.386Z,99927.62
2022-11-15T20:04:58.918Z,99924.56
2022-11-15T20:07:27.959Z,99930.34
2022-11-15T20:09:57.961Z,99921.00
2022-11-15T20:12:27.170Z,99926.11
2022-11-15T20:14:56.273Z,99925.59
2022-11-15T20:17:26.578Z,99921.52
2022-11-15T20:19:56.583Z,99920.67
2022-11-15T20:22:26.103Z,99917.23
2022-11-15T20:24:55.297Z,99917.23
2022-11-15T20:27:26.423Z,99918.60
2022-11-15T20:29:55.247Z,99911.80
2022-11-15T20:32:24.058Z,99921.00
2022-11-15T20:34:54.210Z,99913.86
2022-11-15T20:37:24.765Z,99913.16
2022-11-15T20:39:54.484Z,99914.00
2022-11-15T20:42:23.315Z,99913.48
2022-11-15T20:44:52.474Z,99913.16
2022-11-15T20:47:39.882Z,99910.95
2022-11-15T20:50:35.544Z,99910.10
2022-11-15T20:52:41.573Z,99912.97
2022-11-15T20:55:10.830Z,99912.27
2022-11-15T20:57:57.778Z,99911.23
2022-11-15T21:00:26.733Z,99903.25
2022-11-15T21:02:56.188Z,99907.19
2022-11-15T21:05:27.496Z,99895.45
2022-11-15T21:07:56.558Z,99893.90
2022-11-15T21:10:44.699Z,99899.02
2022-11-15T21:13:31.173Z,99890.00
2022-11-15T21:16:02.958Z,99882.34
2022-11-15T21:18:33.277Z,99873.66
2022-11-15T21:21:04.722Z,99880.66
2022-11-15T21:23:33.547Z,99873.00
2022-11-15T21:26:05.071Z,99876.23
2022-11-15T21:28:34.603Z,99871.31
2022-11-15T21:31:05.387Z,99875.06
2022-11-15T21:33:35.422Z,99877.46
2022-11-15T21:36:05.394Z,99873.38
2022-11-15T21:38:34.813Z,99862.30
2022-11-15T21:41:05.475Z,99867.23
2022-11-15T21:43:35.448Z,99867.23
2022-11-15T21:46:06.546Z,99862.63
2022-11-15T21:48:37.034Z,99861.78
2022-11-15T21:51:08.166Z,99862.63
2022-11-15T21:53:38.637Z,99860.23
2022-11-15T21:56:08.507Z,99850.70
2022-11-15T21:58:37.650Z,99862.95
2022-11-15T22:01:25.962Z,99852.39
2022-11-15T22:03:55.002Z,99861.08
2022-11-15T22:06:24.358Z,99860.23
2022-11-15T22:08:53.771Z,99847.45
2022-11-15T22:11:22.952Z,99840.45
2022-11-15T22:13:51.777Z,99837.73
2022-11-15T22:16:20.380Z,99836.56
2022-11-15T22:18:49.187Z,99833.32
2022-11-15T22:21:19.299Z,99830.92
2022-11-15T22:23:48.464Z,99829.38
2022-11-15T22:26:23.250Z,99829.52
2022-11-15T22:28:50.272Z,99817.96
2022-11-15T22:31:19.879Z,99826.65
2022-11-15T22:33:49.639Z,99805.89
2022-11-15T22:36:19.932Z,99813.88
2022-11-15T22:38:48.904Z,99813.69
2022-11-15T22:41:18.071Z,99812.13
2022-11-15T22:43:48.225Z,99803.45
2022-11-15T22:46:17.335Z,99803.25
2022-11-15T22:48:46.227Z,99806.17
2022-11-15T22:51:15.878Z,99797.67
2022-11-15T22:53:45.096Z,99796.83
2022-11-15T22:56:19.016Z,99788.98
2022-11-15T22:58:44.736Z,99791.52
2022-11-15T23:01:20.943Z,99795.79
2022-11-15T23:03:50.079Z,99795.14
2022-11-15T23:06:19.305Z,99787.48
2022-11-15T23:08:48.460Z,99790.91
2022-11-15T23:11:36.648Z,99793.45
2022-11-15T23:14:06.768Z,99785.79
2022-11-15T23:16:35.733Z,99782.88
2022-11-15T23:19:08.889Z,99779.64
2022-11-15T23:21:59.762Z,99776.06
2022-11-15T23:24:30.710Z,99776.72
2022-11-15T23:27:03.280Z,99775.17
2022-11-15T23:29:35.060Z,99769.91
2022-11-15T23:32:23.252Z,99765.50
2022-11-15T23:34:51.961Z,99765.50
2022-11-15T23:37:21.191Z,99763.63
2022-11-15T23:39:50.275Z,99756.16
2022-11-15T23:42:22.361Z,99754.80
2022-11-15T23:44:51.306Z,99754.47
2022-11-15T23:47:20.398Z,99755.88
2022-11-15T23:49:49.025Z,99765.61
2022-11-15T23:52:18.233Z,99763.08
2022-11-15T23:54:46.777Z,99763.27
2022-11-15T23:57:15.541Z,99763.45
2022-11-15T23:59:45.922Z,99758.39
